createdAt,value
2023-03-06T00:00:39.051Z,5.18
2023-03-06T00:03:10.027Z,5.04
2023-03-06T00:05:43.138Z,4.92
2023-03-06T00:08:13.516Z,4.82
2023-03-06T00:10:44.628Z,4.81
2023-03-06T00:13:16.316Z,4.82
2023-03-06T00:15:46.414Z,4.80
2023-03-06T00:18:16.767Z,4.88
2023-03-06T00:20:49.583Z,4.84
2023-03-06T00:23:19.894Z,4.76
2023-03-06T00:25:49.941Z,4.71
2023-03-06T00:28:19.977Z,4.63
2023-03-06T00:30:51.136Z,4.44
2023-03-06T00:33:21.267Z,4.31
2023-03-06T00:35:53.984Z,4.22
2023-03-06T00:38:25.445Z,4.11
2023-03-06T00:40:55.468Z,3.99
2023-03-06T00:43:25.650Z,3.97
2023-03-06T00:45:55.656Z,3.88
2023-03-06T00:48:25.749Z,3.86
2023-03-06T00:50:58.351Z,3.89
2023-03-06T00:53:28.706Z,3.92
2023-03-06T00:55:58.805Z,3.82
2023-03-06T00:58:29.194Z,3.78
2023-03-06T01:01:00.361Z,3.88
2023-03-06T01:03:30.531Z,3.98
2023-03-06T01:06:03.500Z,4.05
2023-03-06T01:08:33.679Z,4.13
2023-03-06T01:11:03.830Z,4.12
2023-03-06T01:13:34.250Z,4.11
2023-03-06T01:16:12.079Z,4.02
2023-03-06T01:18:42.708Z,4.04
2023-03-06T01:21:16.453Z,4.08
2023-03-06T01:23:47.560Z,4.10
2023-03-06T01:26:17.975Z,3.98
2023-03-06T01:28:48.327Z,3.91
2023-03-06T01:31:18.464Z,3.84
2023-03-06T01:33:48.477Z,3.86
2023-03-06T01:36:24.449Z,3.92
2023-03-06T01:38:54.524Z,3.86
2023-03-06T01:41:24.797Z,3.85
2023-03-06T01:43:55.044Z,3.75
2023-03-06T01:46:33.468Z,3.71
2023-03-06T01:49:07.224Z,3.67
2023-03-06T01:51:42.865Z,3.66
2023-03-06T01:54:17.875Z,3.71
2023-03-06T01:56:51.801Z,3.69
2023-03-06T01:59:23.233Z,3.80
2023-03-06T02:01:54.264Z,3.85
2023-03-06T02:04:24.605Z,3.96
2023-03-06T02:06:58.762Z,3.97
2023-03-06T02:09:31.071Z,3.91
2023-03-06T02:12:02.348Z,3.90
2023-03-06T02:14:33.013Z,3.84
2023-03-06T02:17:03.188Z,3.81
2023-03-06T02:19:40.699Z,3.72
2023-03-06T02:22:13.925Z,3.74
2023-03-06T02:24:51.569Z,3.74
2023-03-06T02:27:26.899Z,3.81
2023-03-06T02:29:59.173Z,3.81
2023-03-06T02:32:30.215Z,3.81
2023-03-06T02:35:00.910Z,3.76
2023-03-06T02:37:31.962Z,3.76
2023-03-06T02:40:14.758Z,3.77
2023-03-06T02:42:53.488Z,3.80
2023-03-06T02:45:29.232Z,3.90
2023-03-06T02:47:59.479Z,3.90
2023-03-06T02:50:32.211Z,3.95
2023-03-06T02:53:04.837Z,3.98
2023-03-06T02:55:35.336Z,4.06
2023-03-06T02:58:08.962Z,4.10
2023-03-06T03:00:40.216Z,4.12
2023-03-06T03:03:13.149Z,4.13
2023-03-06T03:05:43.277Z,4.13
2023-03-06T03:08:20.030Z,4.08
2023-03-06T03:10:52.168Z,4.09
2023-03-06T03:13:25.942Z,4.11
2023-03-06T03:16:02.829Z,4.16
2023-03-06T03:18:33.023Z,4.19
2023-03-06T03:21:03.343Z,4.27
2023-03-06T03:23:33.603Z,4.31
2023-03-06T03:26:10.083Z,4.37
2023-03-06T03:28:45.894Z,4.37
2023-03-06T03:31:19.437Z,4.38
2023-03-06T03:33:49.923Z,4.37
2023-03-06T03:36:21.672Z,4.38
2023-03-06T03:38:52.496Z,4.42
2023-03-06T03:41:23.038Z,4.47
2023-03-06T03:43:57.072Z,4.50
2023-03-06T03:46:27.978Z,4.53
2023-03-06T03:48:59.834Z,4.61
2023-03-06T03:51:30.460Z,4.61
2023-03-06T03:54:01.747Z,4.62
2023-03-06T03:56:40.374Z,4.70
2023-03-06T03:59:18.216Z,4.82
2023-03-06T04:01:59.559Z,4.95
2023-03-06T04:04:30.484Z,5.02
2023-03-06T04:07:00.956Z,5.05
2023-03-06T04:09:31.028Z,5.06
2023-03-06T04:12:01.681Z,5.07
2023-03-06T04:14:35.094Z,5.11
2023-03-06T04:17:05.678Z,5.11
2023-03-06T04:19:36.595Z,5.10
2023-03-06T04:22:06.626Z,5.16
2023-03-06T04:24:39.115Z,5.24
2023-03-06T04:27:09.606Z,5.20
2023-03-06T04:29:42.456Z,5.15
2023-03-06T04:32:12.911Z,5.14
2023-03-06T04:34:43.334Z,5.16
2023-03-06T04:37:22.224Z,5.16
2023-03-06T04:39:52.871Z,5.07
2023-03-06T04:42:23.184Z,5.08
2023-03-06T04:44:55.804Z,5.09
2023-03-06T04:47:25.817Z,5.06
2023-03-06T04:49:55.779Z,4.98
2023-03-06T04:52:25.782Z,5.01
2023-03-06T04:54:55.869Z,5.05
2023-03-06T04:57:26.056Z,5.00
2023-03-06T04:59:58.834Z,4.87
2023-03-06T05:02:28.890Z,4.81
2023-03-06T05:04:59.049Z,4.79
2023-03-06T05:07:29.250Z,4.72
2023-03-06T05:10:00.559Z,4.72
2023-03-06T05:12:30.563Z,4.72
2023-03-06T05:15:03.513Z,4.70
2023-03-06T05:17:33.572Z,4.75
2023-03-06T05:20:06.234Z,4.74
2023-03-06T05:22:36.519Z,4.72
2023-03-06T05:25:07.021Z,4.78
2023-03-06T05:27:37.870Z,4.78
2023-03-06T05:30:13.239Z,4.78
2023-03-06T05:32:43.390Z,4.70
2023-03-06T05:35:20.046Z,4.71
2023-03-06T05:37:50.253Z,4.74
2023-03-06T05:40:21.465Z,4.71
2023-03-06T05:42:53.466Z,4.67
2023-03-06T05:45:26.617Z,4.64
2023-03-06T05:47:56.658Z,4.61
2023-03-06T05:50:26.596Z,4.62
2023-03-06T05:52:56.662Z,4.62
2023-03-06T05:55:26.728Z,4.67
2023-03-06T05:57:57.014Z,4.72
2023-03-06T06:00:30.034Z,4.77
2023-03-06T06:03:03.554Z,4.84
2023-03-06T06:05:33.561Z,4.85
2023-03-06T06:08:03.683Z,4.85
2023-03-06T06:10:33.916Z,4.80
2023-03-06T06:13:04.479Z,4.80
2023-03-06T06:15:37.378Z,4.84
2023-03-06T06:18:07.532Z,4.80
2023-03-06T06:20:39.610Z,4.89
2023-03-06T06:23:09.733Z,5.00
2023-03-06T06:25:40.399Z,5.06
2023-03-06T06:28:12.511Z,5.13
2023-03-06T06:30:55.641Z,5.16
2023-03-06T06:33:36.368Z,5.18
2023-03-06T06:36:17.710Z,5.16
2023-03-06T06:38:48.295Z,5.15
2023-03-06T06:41:42.343Z,5.13
2023-03-06T06:44:23.844Z,5.10
2023-03-06T06:47:21.727Z,5.04
2023-03-06T06:49:46.913Z,5.08
2023-03-06T06:52:17.412Z,5.12
2023-03-06T06:54:47.604Z,5.12
2023-03-06T06:57:18.578Z,5.12
2023-03-06T06:59:49.240Z,5.17
2023-03-06T07:02:22.870Z,5.14
2023-03-06T07:05:03.762Z,5.14
2023-03-06T07:07:34.659Z,5.12
2023-03-06T07:10:05.657Z,5.09
2023-03-06T07:12:36.043Z,5.12
2023-03-06T07:15:08.146Z,5.11
2023-03-06T07:17:40.804Z,5.10
2023-03-06T07:20:12.748Z,5.12
2023-03-06T07:22:50.764Z,5.18
2023-03-06T07:25:22.583Z,5.19
2023-03-06T07:27:55.542Z,5.25
2023-03-06T07:30:26.786Z,5.31
2023-03-06T07:33:00.794Z,5.36
2023-03-06T07:35:30.958Z,5.47
2023-03-06T07:38:00.953Z,5.55
2023-03-06T07:40:31.171Z,5.60
2023-03-06T07:43:16.832Z,5.64
2023-03-06T07:46:02.508Z,5.72
2023-03-06T07:48:35.381Z,5.72
2023-03-06T07:51:07.703Z,5.74
2023-03-06T07:53:38.436Z,5.74
2023-03-06T07:56:11.224Z,5.72
2023-03-06T07:58:43.278Z,5.72
2023-03-06T08:01:15.268Z,5.72
2023-03-06T08:03:49.163Z,5.72
2023-03-06T08:06:21.299Z,5.74
2023-03-06T08:08:52.546Z,5.64
2023-03-06T08:11:25.550Z,5.59
2023-03-06T08:13:58.090Z,5.62
2023-03-06T08:16:30.754Z,5.72
2023-03-06T08:19:03.363Z,5.72
2023-03-06T08:21:33.492Z,5.80
2023-03-06T08:24:03.617Z,5.89
2023-03-06T08:26:34.627Z,5.95
2023-03-06T08:29:05.458Z,6.06
2023-03-06T08:31:37.377Z,6.15
2023-03-06T08:34:11.918Z,6.25
2023-03-06T08:36:42.144Z,6.30
2023-03-06T08:39:13.153Z,6.35
2023-03-06T08:41:43.853Z,6.38
2023-03-06T08:44:14.790Z,6.38
2023-03-06T08:46:44.802Z,6.37
2023-03-06T08:49:17.817Z,6.44
2023-03-06T08:51:47.851Z,6.52
2023-03-06T08:54:18.052Z,6.54
2023-03-06T08:56:48.053Z,6.47
2023-03-06T08:59:18.328Z,6.49
2023-03-06T09:01:48.647Z,6.58
2023-03-06T09:04:21.485Z,6.63
2023-03-06T09:06:52.452Z,6.61
2023-03-06T09:09:23.517Z,6.47
2023-03-06T09:11:53.908Z,6.41
2023-03-06T09:14:24.019Z,6.39
2023-03-06T09:16:54.286Z,6.43
2023-03-06T09:19:26.961Z,6.41
2023-03-06T09:21:57.972Z,6.44
2023-03-06T09:24:28.182Z,6.48
2023-03-06T09:26:58.133Z,6.52
2023-03-06T09:29:28.284Z,5.98
2023-03-06T09:31:59.373Z,6.25
2023-03-06T09:34:32.118Z,6.42
2023-03-06T09:37:02.093Z,6.61
2023-03-06T09:39:32.242Z,6.64
2023-03-06T09:42:02.657Z,6.64
2023-03-06T09:44:34.987Z,6.27
2023-03-06T09:47:43.602Z,6.21
2023-03-06T09:50:25.460Z,6.08
2023-03-06T09:53:08.053Z,6.32
2023-03-06T09:55:41.614Z,6.48
2023-03-06T09:58:17.397Z,6.62
2023-03-06T10:00:56.902Z,6.78
2023-03-06T10:03:32.648Z,6.86
2023-03-06T10:06:12.439Z,6.95
2023-03-06T10:08:52.014Z,7.02
2023-03-06T10:11:29.132Z,7.06
2023-03-06T10:14:11.179Z,7.09
2023-03-06T10:16:41.521Z,7.11
2023-03-06T10:19:17.173Z,6.94
2023-03-06T10:21:59.244Z,6.82
2023-03-06T10:24:51.924Z,6.70
2023-03-06T10:27:32.805Z,6.67
2023-03-06T10:30:14.775Z,6.56
2023-03-06T10:32:55.175Z,6.50
2023-03-06T10:35:30.747Z,6.43
2023-03-06T10:38:19.748Z,6.56
2023-03-06T10:40:58.524Z,6.58
2023-03-06T10:43:29.072Z,6.66
2023-03-06T10:45:59.221Z,6.70
2023-03-06T10:48:32.845Z,6.76
2023-03-06T10:51:18.932Z,6.90
2023-03-06T10:53:57.196Z,6.99
2023-03-06T10:56:33.847Z,6.90
2023-03-06T10:59:17.201Z,6.81
2023-03-06T11:01:49.198Z,6.89
2023-03-06T11:04:26.676Z,6.99
2023-03-06T11:07:15.777Z,7.01
2023-03-06T11:10:01.849Z,7.03
2023-03-06T11:12:33.984Z,7.11
2023-03-06T11:15:24.086Z,7.28
2023-03-06T11:17:58.596Z,7.20
2023-03-06T11:20:44.904Z,7.17
2023-03-06T11:23:29.568Z,7.39
2023-03-06T11:26:08.982Z,7.56
2023-03-06T11:28:45.213Z,7.57
2023-03-06T11:31:20.058Z,7.42
2023-03-06T11:33:54.351Z,7.19
2023-03-06T11:36:31.580Z,7.07
2023-03-06T11:39:02.217Z,7.07
2023-03-06T11:41:45.672Z,7.10
2023-03-06T11:44:24.450Z,7.16
2023-03-06T11:47:04.406Z,7.15
2023-03-06T11:49:41.936Z,7.24
2023-03-06T11:52:21.915Z,7.18
2023-03-06T11:54:57.061Z,6.97
2023-03-06T11:57:38.411Z,6.86
2023-03-06T12:00:34.402Z,6.81
2023-03-06T12:03:36.635Z,6.76
2023-03-06T12:06:11.878Z,6.82
2023-03-06T12:08:50.222Z,6.96
2023-03-06T12:11:25.548Z,7.06
2023-03-06T12:14:18.415Z,6.99
2023-03-06T12:17:13.284Z,6.93
2023-03-06T12:19:55.123Z,6.90
2023-03-06T12:22:39.446Z,7.16
2023-03-06T12:25:36.578Z,7.27
2023-03-06T12:28:23.304Z,7.32
2023-03-06T12:31:14.376Z,7.56
2023-03-06T12:33:53.492Z,7.80
2023-03-06T12:36:38.310Z,7.97
2023-03-06T12:39:20.670Z,8.16
2023-03-06T12:42:21.451Z,8.59
2023-03-06T12:45:19.632Z,8.78
2023-03-06T12:47:57.218Z,8.98
2023-03-06T12:50:29.580Z,9.11
2023-03-06T12:53:03.675Z,9.23
2023-03-06T12:55:42.011Z,9.15
2023-03-06T12:58:41.781Z,9.14
2023-03-06T13:01:20.157Z,9.36
2023-03-06T13:04:08.777Z,9.47
2023-03-06T13:07:04.519Z,9.66
2023-03-06T13:09:42.912Z,9.70
2023-03-06T13:12:30.815Z,9.69
2023-03-06T13:15:03.028Z,9.80
2023-03-06T13:17:38.897Z,10.28
2023-03-06T13:20:36.360Z,10.92
2023-03-06T13:23:36.262Z,11.82
2023-03-06T13:26:07.544Z,11.97
2023-03-06T13:28:49.446Z,11.56
2023-03-06T13:31:30.196Z,11.28
2023-03-06T13:34:02.636Z,11.98
2023-03-06T13:36:39.715Z,12.97
2023-03-06T13:39:16.907Z,13.17
2023-03-06T13:42:01.841Z,12.73
2023-03-06T13:44:52.024Z,12.86
2023-03-06T13:47:48.871Z,13.14
2023-03-06T13:50:41.903Z,13.16
2023-03-06T13:53:44.211Z,12.92
2023-03-06T13:56:46.704Z,12.40
2023-03-06T14:00:03.047Z,11.61
2023-03-06T14:03:08.510Z,11.62
2023-03-06T14:05:47.735Z,11.48
2023-03-06T14:08:20.337Z,11.32
2023-03-06T14:11:01.012Z,11.57
2023-03-06T14:13:47.261Z,11.65
2023-03-06T14:16:29.196Z,11.51
2023-03-06T14:19:04.256Z,11.25
2023-03-06T14:21:38.025Z,10.99
2023-03-06T14:24:08.837Z,10.76
2023-03-06T14:26:44.323Z,11.36
2023-03-06T14:29:24.491Z,11.52
2023-03-06T14:31:58.697Z,12.09
2023-03-06T14:34:30.948Z,12.76
2023-03-06T14:37:05.581Z,13.15
2023-03-06T14:39:38.946Z,12.95
2023-03-06T14:42:18.988Z,12.91
2023-03-06T14:44:49.573Z,12.88
2023-03-06T14:47:32.406Z,12.94
2023-03-06T14:50:30.248Z,12.22
2023-03-06T14:53:04.328Z,11.86
2023-03-06T14:55:51.770Z,11.68
2023-03-06T14:58:25.789Z,11.07
2023-03-06T15:00:58.750Z,10.57
2023-03-06T15:03:44.476Z,10.20
2023-03-06T15:06:21.150Z,9.97
2023-03-06T15:09:07.589Z,9.65
2023-03-06T15:11:54.766Z,9.42
2023-03-06T15:14:33.876Z,9.12
2023-03-06T15:17:26.481Z,9.30
2023-03-06T15:20:00.697Z,10.09
2023-03-06T15:22:33.652Z,10.92
2023-03-06T15:25:31.937Z,11.03
2023-03-06T15:28:04.320Z,10.87
2023-03-06T15:30:36.634Z,11.05
2023-03-06T15:33:22.926Z,11.20
2023-03-06T15:36:01.999Z,10.72
2023-03-06T15:38:40.254Z,10.20
2023-03-06T15:41:24.459Z,9.84
2023-03-06T15:43:54.597Z,9.54
2023-03-06T15:46:24.718Z,9.30
2023-03-06T15:48:56.405Z,8.94
2023-03-06T15:51:29.458Z,8.56
2023-03-06T15:54:11.243Z,8.23
2023-03-06T15:56:43.558Z,8.01
2023-03-06T15:59:19.868Z,7.89
2023-03-06T16:01:50.173Z,7.78
2023-03-06T16:04:20.446Z,7.63
2023-03-06T16:06:53.312Z,7.52
2023-03-06T16:09:25.693Z,7.39
2023-03-06T16:11:55.850Z,7.24
2023-03-06T16:14:26.364Z,7.16
2023-03-06T16:16:58.074Z,6.96
2023-03-06T16:19:29.047Z,6.72
2023-03-06T16:22:01.916Z,6.62
2023-03-06T16:24:32.476Z,6.51
2023-03-06T16:27:04.065Z,6.44
2023-03-06T16:29:34.265Z,6.41
2023-03-06T16:32:04.708Z,6.33
2023-03-06T16:34:35.010Z,6.20
2023-03-06T16:37:09.368Z,6.16
2023-03-06T16:39:39.481Z,6.15
2023-03-06T16:42:10.129Z,6.18
2023-03-06T16:44:40.226Z,6.19
2023-03-06T16:47:14.188Z,6.15
2023-03-06T16:49:57.957Z,6.11
2023-03-06T16:52:30.945Z,6.04
2023-03-06T16:55:01.258Z,5.95
2023-03-06T16:57:35.728Z,5.88
2023-03-06T17:00:09.567Z,5.76
2023-03-06T17:02:41.386Z,5.62
2023-03-06T17:05:13.914Z,5.56
2023-03-06T17:07:46.857Z,5.53
2023-03-06T17:11:50.683Z,5.30
2023-03-06T17:14:23.665Z,5.18
2023-03-06T17:16:53.701Z,5.10
2023-03-06T17:19:23.731Z,5.07
2023-03-06T17:21:53.803Z,5.08
2023-03-06T17:24:23.861Z,5.12
2023-03-06T17:26:56.565Z,5.05
2023-03-06T17:29:26.564Z,4.82
2023-03-06T17:31:57.050Z,4.70
2023-03-06T17:34:27.383Z,4.61
2023-03-06T17:36:57.583Z,4.55
2023-03-06T17:39:27.795Z,4.45
2023-03-06T17:42:00.418Z,4.38
2023-03-06T17:44:30.756Z,4.31
2023-03-06T17:47:00.834Z,4.30
2023-03-06T17:49:31.139Z,4.25
2023-03-06T17:52:04.516Z,4.17
2023-03-06T17:54:35.241Z,4.08
2023-03-06T17:57:08.148Z,4.01
2023-03-06T17:59:38.250Z,4.00
2023-03-06T18:02:08.868Z,3.95
2023-03-06T18:04:38.949Z,3.92
2023-03-06T18:07:09.697Z,3.79
2023-03-06T18:09:40.027Z,3.72
2023-03-06T18:12:12.970Z,3.69
2023-03-06T18:14:42.998Z,3.67
2023-03-06T18:17:12.965Z,3.72
2023-03-06T18:19:43.090Z,3.78
2023-03-06T18:22:13.454Z,3.80
2023-03-06T18:24:43.589Z,3.74
2023-03-06T18:27:16.181Z,3.76
2023-03-06T18:29:46.702Z,3.78
2023-03-06T18:32:17.301Z,3.72
2023-03-06T18:34:47.586Z,3.68
2023-03-06T18:37:17.760Z,3.55
2023-03-06T18:39:47.918Z,3.47
2023-03-06T18:42:20.513Z,3.45
2023-03-06T18:44:50.575Z,3.51
2023-03-06T18:47:20.631Z,3.57
2023-03-06T18:49:50.734Z,3.56
2023-03-06T18:52:23.754Z,3.54
2023-03-06T18:54:53.847Z,3.55
2023-03-06T18:57:28.730Z,3.57
2023-03-06T19:00:00.532Z,3.49
2023-03-06T19:02:30.661Z,3.47
2023-03-06T19:05:00.626Z,3.45
2023-03-06T19:07:33.514Z,3.43
2023-03-06T19:10:03.517Z,3.31
2023-03-06T19:12:39.284Z,3.30
2023-03-06T19:15:10.898Z,3.26
2023-03-06T19:17:41.001Z,3.25
2023-03-06T19:20:12.682Z,3.27
2023-03-06T19:22:45.596Z,3.30
2023-03-06T19:25:15.533Z,3.16
2023-03-06T19:27:48.830Z,3.05
2023-03-06T19:30:25.460Z,3.00
2023-03-06T19:32:56.444Z,3.07
2023-03-06T19:35:28.633Z,3.10
2023-03-06T19:37:58.813Z,3.04
2023-03-06T19:40:28.823Z,2.91
2023-03-06T19:43:01.397Z,2.85
2023-03-06T19:45:31.423Z,2.86
2023-03-06T19:48:03.383Z,2.91
2023-03-06T19:50:33.595Z,2.95
2023-03-06T19:53:07.958Z,2.95
2023-03-06T19:55:38.005Z,2.99
2023-03-06T19:58:11.458Z,3.04
2023-03-06T20:00:42.018Z,3.05
2023-03-06T20:03:12.214Z,2.99
2023-03-06T20:05:48.743Z,2.97
2023-03-06T20:08:18.785Z,2.98
2023-03-06T20:10:48.847Z,2.99
2023-03-06T20:13:21.569Z,3.05
2023-03-06T20:15:51.792Z,3.02
2023-03-06T20:18:24.960Z,2.96
2023-03-06T20:21:06.307Z,2.82
2023-03-06T20:23:36.735Z,2.85
2023-03-06T20:26:09.508Z,2.85
2023-03-06T20:28:45.838Z,2.83
2023-03-06T20:31:19.189Z,2.74
2023-03-06T20:33:50.876Z,2.64
2023-03-06T20:36:23.669Z,2.65
2023-03-06T20:38:54.348Z,2.55
2023-03-06T20:41:26.461Z,2.54
2023-03-06T20:44:00.761Z,2.47
2023-03-06T20:46:45.748Z,2.41
2023-03-06T20:49:16.323Z,2.38
2023-03-06T20:51:46.787Z,2.39
2023-03-06T20:54:19.241Z,2.39
2023-03-06T20:56:51.820Z,2.38
2023-03-06T20:59:24.425Z,2.39
2023-03-06T21:01:54.416Z,2.32
2023-03-06T21:04:24.480Z,2.26
2023-03-06T21:06:56.169Z,2.27
2023-03-06T21:09:26.100Z,2.24
2023-03-06T21:11:56.094Z,2.24
2023-03-06T21:14:28.833Z,2.23
2023-03-06T21:16:59.289Z,2.31
2023-03-06T21:19:29.350Z,2.34
2023-03-06T21:21:59.286Z,2.29
2023-03-06T21:24:29.298Z,2.28
2023-03-06T21:26:59.266Z,2.31
2023-03-06T21:29:31.913Z,2.28
2023-03-06T21:32:01.971Z,2.26
2023-03-06T21:34:32.073Z,2.21
2023-03-06T21:37:02.127Z,2.14
2023-03-06T21:39:32.303Z,2.14
2023-03-06T21:42:02.342Z,2.09
2023-03-06T21:44:34.952Z,2.04
2023-03-06T21:47:04.893Z,2.03
2023-03-06T21:49:35.024Z,1.98
2023-03-06T21:52:04.977Z,2.00
2023-03-06T21:54:34.999Z,1.99
2023-03-06T21:57:05.125Z,2.00
2023-03-06T21:59:37.671Z,2.02
2023-03-06T22:02:08.122Z,2.02
2023-03-06T22:04:38.321Z,2.01
2023-03-06T22:07:08.553Z,2.03
2023-03-06T22:09:38.567Z,2.06
2023-03-06T22:12:08.821Z,2.06
2023-03-06T22:14:41.716Z,1.99
2023-03-06T22:17:11.720Z,1.97
2023-03-06T22:19:41.722Z,1.91
2023-03-06T22:22:11.987Z,2.00
2023-03-06T22:24:42.098Z,2.02
2023-03-06T22:27:12.309Z,1.98
2023-03-06T22:29:45.100Z,1.91
2023-03-06T22:32:15.846Z,1.89
2023-03-06T22:34:45.948Z,1.84
2023-03-06T22:37:16.074Z,1.77
2023-03-06T22:39:46.376Z,1.81
2023-03-06T22:42:16.636Z,1.97
2023-03-06T22:44:49.469Z,2.02
2023-03-06T22:47:19.557Z,2.00
2023-03-06T22:49:49.545Z,2.05
2023-03-06T22:52:22.429Z,2.04
2023-03-06T22:54:52.431Z,2.00
2023-03-06T22:57:22.389Z,1.93
2023-03-06T22:59:55.012Z,1.91
2023-03-06T23:02:25.047Z,1.83
2023-03-06T23:04:55.002Z,1.83
2023-03-06T23:07:24.970Z,1.80
2023-03-06T23:10:03.701Z,1.74
2023-03-06T23:12:54.771Z,1.69
2023-03-06T23:15:46.060Z,1.65
2023-03-06T23:18:35.333Z,1.70
2023-03-06T23:21:24.748Z,1.81
2023-03-06T23:24:13.604Z,1.80
2023-03-06T23:26:43.600Z,1.70
2023-03-06T23:29:13.653Z,1.67
2023-03-06T23:31:46.340Z,1.59
2023-03-06T23:34:16.307Z,1.48
2023-03-06T23:36:46.246Z,1.37
2023-03-06T23:39:16.817Z,1.27
2023-03-06T23:41:46.950Z,1.31
2023-03-06T23:44:16.942Z,1.27
2023-03-06T23:46:49.506Z,1.29
2023-03-06T23:49:21.888Z,1.38
2023-03-06T23:51:51.907Z,1.39
2023-03-06T23:54:21.905Z,1.38
2023-03-06T23:56:51.921Z,1.48
2023-03-06T23:59:21.932Z,1.55
